sensor_id;sensor_type;location;lat;lon;timestamp;pressure;altitude;pressure_sealevel;temperature
31921;BMP280;66485;52.128;4.436;2023-02-19T00:00:56;101875.06;;;16.87
31921;BMP280;66485;52.128;4.436;2023-02-19T00:03:21;101875.06;;;16.87
31921;BMP280;66485;52.128;4.436;2023-02-19T00:05:47;101871.91;;;16.74
31921;BMP280;66485;52.128;4.436;2023-02-19T00:08:12;101878.09;;;16.78
31921;BMP280;66485;52.128;4.436;2023-02-19T00:10:37;101878.09;;;16.78
31921;BMP280;66485;52.128;4.436;2023-02-19T00:13:02;101881.97;;;16.77
31921;BMP280;66485;52.128;4.436;2023-02-19T00:15:31;101876.59;;;16.81
31921;BMP280;66485;52.128;4.436;2023-02-19T00:17:56;101876.59;;;16.81
31921;BMP280;66485;52.128;4.436;2023-02-19T00:20:21;101879.63;;;16.76
31921;BMP280;66485;52.128;4.436;2023-02-19T00:22:47;101881.56;;;16.75
31921;BMP280;66485;52.128;4.436;2023-02-19T00:25:12;101881.56;;;16.75
31921;BMP280;66485;52.128;4.436;2023-02-19T00:27:37;101878.47;;;16.77
31921;BMP280;66485;52.128;4.436;2023-02-19T00:30:03;101885.88;;;16.87
31921;BMP280;66485;52.128;4.436;2023-02-19T00:32:28;101885.88;;;16.87
31921;BMP280;66485;52.128;4.436;2023-02-19T00:34:53;101882.88;;;16.99
31921;BMP280;66485;52.128;4.436;2023-02-19T00:37:19;101894.13;;;17.05
31921;BMP280;66485;52.128;4.436;2023-02-19T00:39:44;101897.59;;;17.01
31921;BMP280;66485;52.128;4.436;2023-02-19T00:42:11;101903.78;;;17.02
31921;BMP280;66485;52.128;4.436;2023-02-19T00:44:36;101900.34;;;17.05
31921;BMP280;66485;52.128;4.436;2023-02-19T00:47:01;101905.31;;;16.99
31921;BMP280;66485;52.128;4.436;2023-02-19T00:49:26;101916.53;;;17.01
31921;BMP280;66485;52.128;4.436;2023-02-19T00:51:52;101916.16;;;17.03
31921;BMP280;66485;52.128;4.436;2023-02-19T00:54:18;101916.16;;;17.03
31921;BMP280;66485;52.128;4.436;2023-02-19T00:56:43;101913.88;;;17.05
31921;BMP280;66485;52.128;4.436;2023-02-19T00:59:09;101918.47;;;17.01
31921;BMP280;66485;52.128;4.436;2023-02-19T01:01:34;101909.19;;;17.02
31921;BMP280;66485;52.128;4.436;2023-02-19T01:04:00;101916.09;;;16.96
31921;BMP280;66485;52.128;4.436;2023-02-19T01:06:25;101918.84;;;16.99
31921;BMP280;66485;52.128;4.436;2023-02-19T01:08:50;101909.13;;;16.91
31921;BMP280;66485;52.128;4.436;2023-02-19T01:11:16;101916.09;;;16.92
31921;BMP280;66485;52.128;4.436;2023-02-19T01:13:42;101920.34;;;16.93
31921;BMP280;66485;52.128;4.436;2023-02-19T01:16:16;101920.34;;;16.93
31921;BMP280;66485;52.128;4.436;2023-02-19T01:18:43;101919.94;;;16.91
31921;BMP280;66485;52.128;4.436;2023-02-19T01:21:12;101915.69;;;16.90
31921;BMP280;66485;52.128;4.436;2023-02-19T01:23:38;101919.53;;;16.89
31921;BMP280;66485;52.128;4.436;2023-02-19T01:26:10;101919.53;;;16.89
31921;BMP280;66485;52.128;4.436;2023-02-19T01:28:36;101927.94;;;16.77
31921;BMP280;66485;52.128;4.436;2023-02-19T01:31:02;101928.41;;;16.86
31921;BMP280;66485;52.128;4.436;2023-02-19T01:33:29;101928.41;;;16.86
31921;BMP280;66485;52.128;4.436;2023-02-19T01:35:54;101921.06;;;16.83
31921;BMP280;66485;52.128;4.436;2023-02-19T01:38:20;101919.91;;;16.84
31921;BMP280;66485;52.128;4.436;2023-02-19T01:41:01;101921.09;;;16.90
31921;BMP280;66485;52.128;4.436;2023-02-19T01:43:27;101915.56;;;16.76
31921;BMP280;66485;52.128;4.436;2023-02-19T01:45:53;101925.69;;;16.79
31921;BMP280;66485;52.128;4.436;2023-02-19T01:48:36;101928.72;;;16.78
31921;BMP280;66485;52.128;4.436;2023-02-19T01:51:08;101931.81;;;16.73
31921;BMP280;66485;52.128;4.436;2023-02-19T01:53:44;101931.78;;;16.69
31921;BMP280;66485;52.128;4.436;2023-02-19T01:56:10;101931.78;;;16.69
31921;BMP280;66485;52.128;4.436;2023-02-19T01:58:37;101953.00;;;16.67
31921;BMP280;66485;52.128;4.436;2023-02-19T02:01:05;101943.78;;;16.72
31921;BMP280;66485;52.128;4.436;2023-02-19T02:03:32;101943.78;;;16.72
31921;BMP280;66485;52.128;4.436;2023-02-19T02:06:05;101948.44;;;16.78
31921;BMP280;66485;52.128;4.436;2023-02-19T02:08:32;101957.41;;;16.86
31921;BMP280;66485;52.128;4.436;2023-02-19T02:11:18;101946.19;;;16.87
31921;BMP280;66485;52.128;4.436;2023-02-19T02:13:43;101953.63;;;16.94
31921;BMP280;66485;52.128;4.436;2023-02-19T02:16:24;101949.72;;;16.91
31921;BMP280;66485;52.128;4.436;2023-02-19T02:19:26;101949.72;;;16.91
31921;BMP280;66485;52.128;4.436;2023-02-19T02:22:06;101956.69;;;16.92
31921;BMP280;66485;52.128;4.436;2023-02-19T02:24:51;101956.69;;;16.92
31921;BMP280;66485;52.128;4.436;2023-02-19T02:33:30;101959.31;;;16.85
31921;BMP280;66485;52.128;4.436;2023-02-19T02:36:06;101946.19;;;16.84
31921;BMP280;66485;52.128;4.436;2023-02-19T02:38:36;101956.66;;;16.89
31921;BMP280;66485;52.128;4.436;2023-02-19T02:41:02;101956.66;;;16.89
31921;BMP280;66485;52.128;4.436;2023-02-19T02:43:28;101943.84;;;16.82
31921;BMP280;66485;52.128;4.436;2023-02-19T02:45:54;101943.84;;;16.82
31921;BMP280;66485;52.128;4.436;2023-02-19T02:48:39;101962.81;;;16.82
31921;BMP280;66485;52.128;4.436;2023-02-19T02:56:18;101965.91;;;16.84
31921;BMP280;66485;52.128;4.436;2023-02-19T02:58:45;101963.22;;;16.84
31921;BMP280;66485;52.128;4.436;2023-02-19T03:01:17;101971.72;;;16.86
31921;BMP280;66485;52.128;4.436;2023-02-19T03:04:10;101977.84;;;16.80
31921;BMP280;66485;52.128;4.436;2023-02-19T03:06:36;101989.88;;;16.82
31921;BMP280;66485;52.128;4.436;2023-02-19T03:11:36;101983.25;;;16.80
31921;BMP280;66485;52.128;4.436;2023-02-19T03:14:26;101986.88;;;16.98
31921;BMP280;66485;52.128;4.436;2023-02-19T03:17:21;101997.31;;;16.96
31921;BMP280;66485;52.128;4.436;2023-02-19T03:20:10;101998.88;;;17.00
31921;BMP280;66485;52.128;4.436;2023-02-19T03:22:40;101998.88;;;17.00
31921;BMP280;66485;52.128;4.436;2023-02-19T03:25:10;102002.75;;;16.99
31921;BMP280;66485;52.128;4.436;2023-02-19T03:27:57;102002.75;;;16.99
31921;BMP280;66485;52.128;4.436;2023-02-19T03:30:27;102002.34;;;16.94
31921;BMP280;66485;52.128;4.436;2023-02-19T03:32:57;102001.56;;;16.93
31921;BMP280;66485;52.128;4.436;2023-02-19T03:35:27;102000.00;;;16.92
31921;BMP280;66485;52.128;4.436;2023-02-19T03:38:03;102005.41;;;16.92
31921;BMP280;66485;52.128;4.436;2023-02-19T03:40:34;102007.00;;;17.00
31921;BMP280;66485;52.128;4.436;2023-02-19T03:46:10;102010.84;;;16.96
31921;BMP280;66485;52.128;4.436;2023-02-19T03:48:47;102011.94;;;16.88
31921;BMP280;66485;52.128;4.436;2023-02-19T03:56:31;102014.22;;;16.86
31921;BMP280;66485;52.128;4.436;2023-02-19T03:59:07;102007.97;;;16.78
31921;BMP280;66485;52.128;4.436;2023-02-19T04:01:49;102011.81;;;16.74
31921;BMP280;66485;52.128;4.436;2023-02-19T04:04:24;102011.81;;;16.74
31921;BMP280;66485;52.128;4.436;2023-02-19T04:06:55;102009.16;;;16.81
31921;BMP280;66485;52.128;4.436;2023-02-19T04:09:22;102015.00;;;16.86
31921;BMP280;66485;52.128;4.436;2023-02-19T04:11:50;102015.00;;;16.86
31921;BMP280;66485;52.128;4.436;2023-02-19T04:14:24;102025.41;;;16.81
31921;BMP280;66485;52.128;4.436;2023-02-19T04:16:58;102025.41;;;16.81
31921;BMP280;66485;52.128;4.436;2023-02-19T04:19:26;102016.50;;;16.80
31921;BMP280;66485;52.128;4.436;2023-02-19T04:21:53;102035.00;;;16.75
31921;BMP280;66485;52.128;4.436;2023-02-19T04:24:36;102034.63;;;16.76
31921;BMP280;66485;52.128;4.436;2023-02-19T04:27:03;102049.31;;;16.75
31921;BMP280;66485;52.128;4.436;2023-02-19T04:29:29;102057.81;;;16.74
31921;BMP280;66485;52.128;4.436;2023-02-19T04:31:55;102057.81;;;16.74
31921;BMP280;66485;52.128;4.436;2023-02-19T04:34:20;102053.44;;;16.58
31921;BMP280;66485;52.128;4.436;2023-02-19T04:36:45;102075.44;;;16.60
31921;BMP280;66485;52.128;4.436;2023-02-19T04:39:10;102077.09;;;16.69
31921;BMP280;66485;52.128;4.436;2023-02-19T04:41:36;102077.44;;;16.67
31921;BMP280;66485;52.128;4.436;2023-02-19T04:44:01;102083.34;;;16.76
31921;BMP280;66485;52.128;4.436;2023-02-19T04:46:26;102083.34;;;16.76
31921;BMP280;66485;52.128;4.436;2023-02-19T04:48:52;102092.38;;;16.91
31921;BMP280;66485;52.128;4.436;2023-02-19T04:51:17;102089.28;;;16.89
31921;BMP280;66485;52.128;4.436;2023-02-19T04:53:42;102103.25;;;16.94
31921;BMP280;66485;52.128;4.436;2023-02-19T04:56:13;102105.88;;;16.87
31921;BMP280;66485;52.128;4.436;2023-02-19T04:58:40;102107.06;;;16.90
31921;BMP280;66485;52.128;4.436;2023-02-19T05:01:06;102121.75;;;16.89
31921;BMP280;66485;52.128;4.436;2023-02-19T05:03:32;102121.75;;;16.89
31921;BMP280;66485;52.128;4.436;2023-02-19T05:06:03;102123.25;;;16.83
31921;BMP280;66485;52.128;4.436;2023-02-19T05:08:28;102130.22;;;16.84
31921;BMP280;66485;52.128;4.436;2023-02-19T05:11:01;102130.22;;;16.84
31921;BMP280;66485;52.128;4.436;2023-02-19T05:13:27;102128.66;;;16.86
31921;BMP280;66485;52.128;4.436;2023-02-19T05:16:18;102133.31;;;16.86
31921;BMP280;66485;52.128;4.436;2023-02-19T05:18:44;102135.63;;;16.84
31921;BMP280;66485;52.128;4.436;2023-02-19T05:21:10;102145.66;;;16.83
31921;BMP280;66485;52.128;4.436;2023-02-19T05:23:36;102145.66;;;16.83
31921;BMP280;66485;52.128;4.436;2023-02-19T05:26:06;102137.09;;;16.78
31921;BMP280;66485;52.128;4.436;2023-02-19T05:28:32;102152.13;;;16.75
31921;BMP280;66485;52.128;4.436;2023-02-19T05:31:03;102136.31;;;16.77
31921;BMP280;66485;52.128;4.436;2023-02-19T05:33:28;102137.06;;;16.74
31921;BMP280;66485;52.128;4.436;2023-02-19T05:35:54;102139.78;;;16.74
31921;BMP280;66485;52.128;4.436;2023-02-19T05:38:21;102143.53;;;16.66
31921;BMP280;66485;52.128;4.436;2023-02-19T05:40:46;102135.88;;;16.75
31921;BMP280;66485;52.128;4.436;2023-02-19T05:43:12;102130.22;;;16.87
31921;BMP280;66485;52.128;4.436;2023-02-19T05:45:39;102130.22;;;16.87
31921;BMP280;66485;52.128;4.436;2023-02-19T05:48:05;102135.38;;;16.99
31921;BMP280;66485;52.128;4.436;2023-02-19T05:50:33;102144.66;;;16.98
31921;BMP280;66485;52.128;4.436;2023-02-19T05:53:00;102140.81;;;16.99
31921;BMP280;66485;52.128;4.436;2023-02-19T05:55:26;102140.81;;;16.99
31921;BMP280;66485;52.128;4.436;2023-02-19T05:57:52;102144.25;;;16.96
31921;BMP280;66485;52.128;4.436;2023-02-19T06:00:18;102157.41;;;16.98
31921;BMP280;66485;52.128;4.436;2023-02-19T06:02:44;102155.84;;;16.97
31921;BMP280;66485;52.128;4.436;2023-02-19T06:05:09;102161.56;;;16.88
31921;BMP280;66485;52.128;4.436;2023-02-19T06:07:35;102162.03;;;16.97
31921;BMP280;66485;52.128;4.436;2023-02-19T06:10:04;102162.03;;;16.97
31921;BMP280;66485;52.128;4.436;2023-02-19T06:12:29;102165.09;;;16.92
31921;BMP280;66485;52.128;4.436;2023-02-19T06:14:55;102175.09;;;16.88
31921;BMP280;66485;52.128;4.436;2023-02-19T06:17:20;102172.03;;;16.90
31921;BMP280;66485;52.128;4.436;2023-02-19T06:19:45;102181.25;;;16.85
31921;BMP280;66485;52.128;4.436;2023-02-19T06:22:13;102192.91;;;16.89
31921;BMP280;66485;52.128;4.436;2023-02-19T06:24:39;102197.16;;;16.90
31921;BMP280;66485;52.128;4.436;2023-02-19T06:27:08;102187.41;;;16.82
31921;BMP280;66485;52.128;4.436;2023-02-19T06:29:34;102190.53;;;16.84
31921;BMP280;66485;52.128;4.436;2023-02-19T06:32:03;102190.53;;;16.84
31921;BMP280;66485;52.128;4.436;2023-02-19T06:34:29;102189.66;;;16.77
31921;BMP280;66485;52.128;4.436;2023-02-19T06:36:54;102189.66;;;16.77
31921;BMP280;66485;52.128;4.436;2023-02-19T06:39:19;102199.03;;;16.86
31921;BMP280;66485;52.128;4.436;2023-02-19T06:41:45;102195.56;;;16.86
31921;BMP280;66485;52.128;4.436;2023-02-19T06:44:10;102198.22;;;16.82
31921;BMP280;66485;52.128;4.436;2023-02-19T06:46:35;102203.66;;;16.82
31921;BMP280;66485;52.128;4.436;2023-02-19T06:49:03;102203.97;;;16.77
31921;BMP280;66485;52.128;4.436;2023-02-19T06:51:29;102212.06;;;16.77
31921;BMP280;66485;52.128;4.436;2023-02-19T06:53:55;102205.16;;;16.80
31921;BMP280;66485;52.128;4.436;2023-02-19T06:56:32;102215.63;;;16.81
31921;BMP280;66485;52.128;4.436;2023-02-19T06:59:00;102221.03;;;16.81
31921;BMP280;66485;52.128;4.436;2023-02-19T07:01:28;102224.88;;;16.80
31921;BMP280;66485;52.128;4.436;2023-02-19T07:03:53;102238.00;;;16.78
31921;BMP280;66485;52.128;4.436;2023-02-19T07:06:20;102240.28;;;16.76
31921;BMP280;66485;52.128;4.436;2023-02-19T07:08:46;102240.28;;;16.76
31921;BMP280;66485;52.128;4.436;2023-02-19T07:11:11;102252.66;;;16.77
31921;BMP280;66485;52.128;4.436;2023-02-19T07:13:36;102252.66;;;16.77
31921;BMP280;66485;52.128;4.436;2023-02-19T07:16:04;102247.25;;;16.77
31921;BMP280;66485;52.128;4.436;2023-02-19T07:18:32;102264.84;;;16.90
31921;BMP280;66485;52.128;4.436;2023-02-19T07:21:06;102267.19;;;16.95
31921;BMP280;66485;52.128;4.436;2023-02-19T07:23:31;102267.19;;;16.95
31921;BMP280;66485;52.128;4.436;2023-02-19T07:25:57;102277.66;;;16.97
31921;BMP280;66485;52.128;4.436;2023-02-19T07:28:23;102279.59;;;16.96
31921;BMP280;66485;52.128;4.436;2023-02-19T07:30:48;102283.84;;;16.97
31921;BMP280;66485;52.128;4.436;2023-02-19T07:33:13;102300.06;;;16.94
31921;BMP280;66485;52.128;4.436;2023-02-19T07:35:46;102300.06;;;16.94
31921;BMP280;66485;52.128;4.436;2023-02-19T07:38:15;102297.75;;;16.96
31921;BMP280;66485;52.128;4.436;2023-02-19T07:40:40;102303.16;;;16.96
31921;BMP280;66485;52.128;4.436;2023-02-19T07:43:06;102307.81;;;16.95
31921;BMP280;66485;52.128;4.436;2023-02-19T07:45:31;102307.81;;;16.95
31921;BMP280;66485;52.128;4.436;2023-02-19T07:47:56;102317.41;;;16.89
31921;BMP280;66485;52.128;4.436;2023-02-19T07:50:22;102327.09;;;16.90
31921;BMP280;66485;52.128;4.436;2023-02-19T07:52:47;102328.16;;;16.86
31921;BMP280;66485;52.128;4.436;2023-02-19T07:55:12;102340.63;;;16.90
31921;BMP280;66485;52.128;4.436;2023-02-19T07:57:38;102340.63;;;16.90
31921;BMP280;66485;52.128;4.436;2023-02-19T08:00:03;102349.00;;;16.82
31921;BMP280;66485;52.128;4.436;2023-02-19T08:02:29;102340.53;;;16.83
31921;BMP280;66485;52.128;4.436;2023-02-19T08:05:13;102340.53;;;16.83
31921;BMP280;66485;52.128;4.436;2023-02-19T08:07:38;102355.19;;;16.82
31921;BMP280;66485;52.128;4.436;2023-02-19T08:10:04;102355.19;;;16.82
31921;BMP280;66485;52.128;4.436;2023-02-19T08:12:56;102357.16;;;16.85
31921;BMP280;66485;52.128;4.436;2023-02-19T08:15:40;102359.94;;;16.89
31921;BMP280;66485;52.128;4.436;2023-02-19T08:18:06;102355.38;;;16.96
31921;BMP280;66485;52.128;4.436;2023-02-19T08:20:31;102360.06;;;16.99
31921;BMP280;66485;52.128;4.436;2023-02-19T08:22:56;102360.16;;;17.07
31921;BMP280;66485;52.128;4.436;2023-02-19T08:25:22;102354.75;;;17.07
31921;BMP280;66485;52.128;4.436;2023-02-19T08:27:47;102365.19;;;17.05
31921;BMP280;66485;52.128;4.436;2023-02-19T08:30:12;102369.06;;;17.07
31921;BMP280;66485;52.128;4.436;2023-02-19T08:32:38;102378.34;;;17.06
31921;BMP280;66485;52.128;4.436;2023-02-19T08:35:03;102377.63;;;17.09
31921;BMP280;66485;52.128;4.436;2023-02-19T08:37:29;102381.09;;;17.10
31921;BMP280;66485;52.128;4.436;2023-02-19T08:39:54;102371.41;;;17.09
31921;BMP280;66485;52.128;4.436;2023-02-19T08:42:19;102375.25;;;17.08
31921;BMP280;66485;52.128;4.436;2023-02-19T08:44:44;102383.75;;;17.06
31921;BMP280;66485;52.128;4.436;2023-02-19T08:47:10;102383.75;;;17.06
31921;BMP280;66485;52.128;4.436;2023-02-19T08:49:35;102371.38;;;17.05
31921;BMP280;66485;52.128;4.436;2023-02-19T08:52:00;102365.56;;;17.07
31921;BMP280;66485;52.128;4.436;2023-02-19T08:54:25;102369.06;;;17.07
31921;BMP280;66485;52.128;4.436;2023-02-19T08:56:51;102367.91;;;17.05
31921;BMP280;66485;52.128;4.436;2023-02-19T08:59:16;102365.19;;;17.05
31921;BMP280;66485;52.128;4.436;2023-02-19T09:01:43;102372.13;;;17.06
31921;BMP280;66485;52.128;4.436;2023-02-19T09:04:10;102384.91;;;17.05
31921;BMP280;66485;52.128;4.436;2023-02-19T09:06:36;102395.00;;;17.08
31921;BMP280;66485;52.128;4.436;2023-02-19T09:09:02;102395.00;;;17.08
31921;BMP280;66485;52.128;4.436;2023-02-19T09:11:27;102395.38;;;17.07
31921;BMP280;66485;52.128;4.436;2023-02-19T09:13:54;102400.38;;;17.05
31921;BMP280;66485;52.128;4.436;2023-02-19T09:16:20;102399.22;;;17.06
31921;BMP280;66485;52.128;4.436;2023-02-19T09:18:45;102399.22;;;17.06
31921;BMP280;66485;52.128;4.436;2023-02-19T09:21:11;102414.31;;;17.07
31921;BMP280;66485;52.128;4.436;2023-02-19T09:23:36;102423.97;;;17.04
31921;BMP280;66485;52.128;4.436;2023-02-19T09:26:03;102423.97;;;17.04
31921;BMP280;66485;52.128;4.436;2023-02-19T09:28:31;102417.34;;;17.01
31921;BMP280;66485;52.128;4.436;2023-02-19T09:30:56;102442.06;;;17.00
31921;BMP280;66485;52.128;4.436;2023-02-19T09:33:27;102450.13;;;16.96
31921;BMP280;66485;52.128;4.436;2023-02-19T09:35:52;102449.78;;;16.98
31921;BMP280;66485;52.128;4.436;2023-02-19T09:38:17;102454.41;;;16.97
31921;BMP280;66485;52.128;4.436;2023-02-19T09:40:42;102460.59;;;16.98
31921;BMP280;66485;52.128;4.436;2023-02-19T09:43:14;102460.59;;;16.98
31921;BMP280;66485;52.128;4.436;2023-02-19T09:45:40;102480.66;;;16.93
31921;BMP280;66485;52.128;4.436;2023-02-19T09:48:06;102483.41;;;16.97
31921;BMP280;66485;52.128;4.436;2023-02-19T09:50:41;102482.97;;;16.95
31921;BMP280;66485;52.128;4.436;2023-02-19T09:53:17;102487.75;;;17.01
31921;BMP280;66485;52.128;4.436;2023-02-19T09:55:44;102487.75;;;17.01
31921;BMP280;66485;52.128;4.436;2023-02-19T09:58:29;102492.84;;;17.07
31921;BMP280;66485;52.128;4.436;2023-02-19T10:00:57;102485.53;;;17.11
31921;BMP280;66485;52.128;4.436;2023-02-19T10:03:29;102485.53;;;17.11
31921;BMP280;66485;52.128;4.436;2023-02-19T10:06:25;102498.38;;;17.14
31921;BMP280;66485;52.128;4.436;2023-02-19T10:08:55;102501.13;;;17.17
31921;BMP280;66485;52.128;4.436;2023-02-19T10:11:24;102501.13;;;17.17
31921;BMP280;66485;52.128;4.436;2023-02-19T10:14:07;102503.03;;;17.17
31921;BMP280;66485;52.128;4.436;2023-02-19T10:16:39;102503.03;;;17.17
31921;BMP280;66485;52.128;4.436;2023-02-19T10:19:09;102513.50;;;17.18
31921;BMP280;66485;52.128;4.436;2023-02-19T10:21:35;102525.13;;;17.19
31921;BMP280;66485;52.128;4.436;2023-02-19T10:24:03;102521.28;;;17.20
31921;BMP280;66485;52.128;4.436;2023-02-19T10:26:30;102527.44;;;17.20
31921;BMP280;66485;52.128;4.436;2023-02-19T10:29:04;102527.44;;;17.20
31921;BMP280;66485;52.128;4.436;2023-02-19T10:31:31;102529.03;;;17.21
31921;BMP280;66485;52.128;4.436;2023-02-19T10:33:59;102533.66;;;17.21
31921;BMP280;66485;52.128;4.436;2023-02-19T10:36:32;102533.66;;;17.21
31921;BMP280;66485;52.128;4.436;2023-02-19T10:39:00;102530.56;;;17.19
31921;BMP280;66485;52.128;4.436;2023-02-19T10:41:26;102531.25;;;17.16
31921;BMP280;66485;52.128;4.436;2023-02-19T10:44:06;102539.03;;;17.17
31921;BMP280;66485;52.128;4.436;2023-02-19T10:46:40;102539.03;;;17.17
31921;BMP280;66485;52.128;4.436;2023-02-19T10:51:51;102536.66;;;17.12
31921;BMP280;66485;52.128;4.436;2023-02-19T10:54:23;102532.00;;;17.13
31921;BMP280;66485;52.128;4.436;2023-02-19T10:56:49;102532.00;;;17.13
31921;BMP280;66485;52.128;4.436;2023-02-19T11:01:52;102535.44;;;17.10
31921;BMP280;66485;52.128;4.436;2023-02-19T11:04:18;102533.88;;;17.09
31921;BMP280;66485;52.128;4.436;2023-02-19T11:06:45;102541.59;;;17.10
31921;BMP280;66485;52.128;4.436;2023-02-19T11:11:55;102530.38;;;17.08
31921;BMP280;66485;52.128;4.436;2023-02-19T11:14:23;102546.97;;;17.07
31921;BMP280;66485;52.128;4.436;2023-02-19T11:16:54;102550.13;;;17.09
31921;BMP280;66485;52.128;4.436;2023-02-19T11:19:30;102551.28;;;17.11
31921;BMP280;66485;52.128;4.436;2023-02-19T11:21:57;102555.53;;;17.09
31921;BMP280;66485;52.128;4.436;2023-02-19T11:24:35;102553.59;;;17.09
31921;BMP280;66485;52.128;4.436;2023-02-19T11:27:12;102559.81;;;17.10
31921;BMP280;66485;52.128;4.436;2023-02-19T11:29:40;102563.72;;;17.12
31921;BMP280;66485;52.128;4.436;2023-02-19T11:32:23;102554.94;;;17.19
31921;BMP280;66485;52.128;4.436;2023-02-19T11:34:51;102565.38;;;17.20
31921;BMP280;66485;52.128;4.436;2023-02-19T11:37:18;102552.75;;;17.28
31921;BMP280;66485;52.128;4.436;2023-02-19T11:39:47;102544.66;;;17.31
31921;BMP280;66485;52.128;4.436;2023-02-19T11:42:41;102543.88;;;17.31
31921;BMP280;66485;52.128;4.436;2023-02-19T11:50:20;102546.72;;;17.38
31921;BMP280;66485;52.128;4.436;2023-02-19T11:52:59;102559.72;;;17.55
31921;BMP280;66485;52.128;4.436;2023-02-19T11:55:44;102559.72;;;17.55
31921;BMP280;66485;52.128;4.436;2023-02-19T11:58:38;102562.63;;;17.43
31921;BMP280;66485;52.128;4.436;2023-02-19T12:09:48;102580.25;;;17.56
31921;BMP280;66485;52.128;4.436;2023-02-19T12:15:00;102582.19;;;17.56
31921;BMP280;66485;52.128;4.436;2023-02-19T12:23:57;102590.41;;;17.63
31921;BMP280;66485;52.128;4.436;2023-02-19T12:29:48;102604.00;;;17.93
31921;BMP280;66485;52.128;4.436;2023-02-19T12:32:23;102604.00;;;17.93
31921;BMP280;66485;52.128;4.436;2023-02-19T12:37:51;102614.47;;;17.94
31921;BMP280;66485;52.128;4.436;2023-02-19T12:43:22;102616.09;;;17.99
31921;BMP280;66485;52.128;4.436;2023-02-19T12:46:00;102627.59;;;17.89
31921;BMP280;66485;52.128;4.436;2023-02-19T12:51:14;102647.91;;;18.02
31921;BMP280;66485;52.128;4.436;2023-02-19T12:53:49;102651.53;;;18.13
31921;BMP280;66485;52.128;4.436;2023-02-19T12:56:21;102648.78;;;18.09
31921;BMP280;66485;52.128;4.436;2023-02-19T12:58:50;102651.00;;;18.04
31921;BMP280;66485;52.128;4.436;2023-02-19T13:01:25;102660.31;;;18.03
31921;BMP280;66485;52.128;4.436;2023-02-19T13:04:24;102651.78;;;18.04
31921;BMP280;66485;52.128;4.436;2023-02-19T13:06:58;102651.78;;;18.04
31921;BMP280;66485;52.128;4.436;2023-02-19T13:09:33;102666.63;;;18.10
31921;BMP280;66485;52.128;4.436;2023-02-19T13:12:07;102670.06;;;18.07
31921;BMP280;66485;52.128;4.436;2023-02-19T13:15:30;102670.00;;;18.04
31921;BMP280;66485;52.128;4.436;2023-02-19T13:17:49;102665.00;;;18.06
31921;BMP280;66485;52.128;4.436;2023-02-19T13:20:34;102670.78;;;18.04
31921;BMP280;66485;52.128;4.436;2023-02-19T13:31:25;102692.47;;;18.04
31921;BMP280;66485;52.128;4.436;2023-02-19T13:37:04;102694.31;;;17.97
31921;BMP280;66485;52.128;4.436;2023-02-19T13:39:30;102692.72;;;17.96
31921;BMP280;66485;52.128;4.436;2023-02-19T13:41:56;102692.72;;;17.96
31921;BMP280;66485;52.128;4.436;2023-02-19T13:44:27;102695.06;;;17.94
31921;BMP280;66485;52.128;4.436;2023-02-19T13:46:54;102696.19;;;17.93
31921;BMP280;66485;52.128;4.436;2023-02-19T13:51:54;102714.78;;;17.94
31921;BMP280;66485;52.128;4.436;2023-02-19T13:59:47;102715.19;;;17.93
31921;BMP280;66485;52.128;4.436;2023-02-19T14:02:23;102716.69;;;17.90
31921;BMP280;66485;52.128;4.436;2023-02-19T14:04:51;102716.69;;;17.90
31921;BMP280;66485;52.128;4.436;2023-02-19T14:17:40;102722.78;;;17.84
31921;BMP280;66485;52.128;4.436;2023-02-19T14:30:47;102704.19;;;17.86
31921;BMP280;66485;52.128;4.436;2023-02-19T14:33:14;102692.56;;;17.85
31921;BMP280;66485;52.128;4.436;2023-02-19T14:35:43;102701.94;;;17.88
31921;BMP280;66485;52.128;4.436;2023-02-19T14:38:25;102695.38;;;17.89
31921;BMP280;66485;52.128;4.436;2023-02-19T14:40:52;102704.72;;;17.95
31921;BMP280;66485;52.128;4.436;2023-02-19T14:43:20;102701.34;;;18.01
31921;BMP280;66485;52.128;4.436;2023-02-19T14:45:58;102698.69;;;18.31
31921;BMP280;66485;52.128;4.436;2023-02-19T14:48:28;102676.03;;;18.50
31921;BMP280;66485;52.128;4.436;2023-02-19T14:51:02;102677.78;;;18.35
31921;BMP280;66485;52.128;4.436;2023-02-19T14:53:35;102685.69;;;18.17
31921;BMP280;66485;52.128;4.436;2023-02-19T14:56:01;102685.69;;;18.17
31921;BMP280;66485;52.128;4.436;2023-02-19T14:58:31;102701.88;;;18.10
31921;BMP280;66485;52.128;4.436;2023-02-19T15:00:57;102687.84;;;18.08
31921;BMP280;66485;52.128;4.436;2023-02-19T15:03:30;102687.84;;;18.08
31921;BMP280;66485;52.128;4.436;2023-02-19T15:06:04;102685.97;;;18.09
31921;BMP280;66485;52.128;4.436;2023-02-19T15:08:35;102683.09;;;18.28
31921;BMP280;66485;52.128;4.436;2023-02-19T15:11:03;102683.09;;;18.28
31921;BMP280;66485;52.128;4.436;2023-02-19T15:13:32;102699.50;;;18.35
31921;BMP280;66485;52.128;4.436;2023-02-19T15:15:58;102697.28;;;18.18
31921;BMP280;66485;52.128;4.436;2023-02-19T15:18:24;102697.28;;;18.18
31921;BMP280;66485;52.128;4.436;2023-02-19T15:20:57;102711.56;;;18.11
31921;BMP280;66485;52.128;4.436;2023-02-19T15:23:23;102716.22;;;18.11
31921;BMP280;66485;52.128;4.436;2023-02-19T15:25:49;102716.22;;;18.11
31921;BMP280;66485;52.128;4.436;2023-02-19T15:30:48;102716.06;;;18.00
31921;BMP280;66485;52.128;4.436;2023-02-19T15:33:18;102711.41;;;18.01
31921;BMP280;66485;52.128;4.436;2023-02-19T15:35:55;102711.41;;;18.01
31921;BMP280;66485;52.128;4.436;2023-02-19T15:38:21;102711.72;;;17.96
31921;BMP280;66485;52.128;4.436;2023-02-19T15:40:48;102711.72;;;17.96
31921;BMP280;66485;52.128;4.436;2023-02-19T15:43:39;102717.47;;;17.91
31921;BMP280;66485;52.128;4.436;2023-02-19T15:46:13;102716.59;;;17.87
31921;BMP280;66485;52.128;4.436;2023-02-19T15:48:59;102719.31;;;17.87
31921;BMP280;66485;52.128;4.436;2023-02-19T15:51:32;102723.56;;;17.84
31921;BMP280;66485;52.128;4.436;2023-02-19T15:54:16;102731.28;;;17.82
31921;BMP280;66485;52.128;4.436;2023-02-19T15:56:45;102733.56;;;17.80
31921;BMP280;66485;52.128;4.436;2023-02-19T15:59:27;102733.56;;;17.80